Time;durP1;ratioP1;P1;durP2;ratioP2;P2;SDS_P1;SDS_P2;PMS_P1;PMS_P2;Temp;Humidity;BMP_temperature;BMP_pressure;BME280_temperature;BME280_humidity;BME280_pressure;Samples;Min_cycle;Max_cycle;Signal;HPM_P1;HPM_P2
2023/10/16 00:01:11;;;;;;;6.47;3.63;;;7.10;99.90;;;;;;4991890;28;20421;-73
2023/10/16 00:03:43;;;;;;;4.97;3.57;;;7.20;99.90;;;;;;4991848;28;20442;-73
2023/10/16 00:06:11;;;;;;;3.80;2.70;;;7.00;99.90;;;;;;4991847;28;20511;-73
2023/10/16 00:08:47;;;;;;;3.80;3.30;;;6.90;99.90;;;;;;4991867;28;20447;-73
2023/10/16 00:11:17;;;;;;;4.67;3.47;;;7.00;99.90;;;;;;4992891;28;20570;-72
2023/10/16 00:13:44;;;;;;;4.83;3.43;;;7.00;99.90;;;;;;4991686;28;20401;-71
2023/10/16 00:16:15;;;;;;;4.40;3.90;;;6.90;99.90;;;;;;4991288;28;20430;-71
2023/10/16 00:18:41;;;;;;;4.30;3.90;;;6.90;99.90;;;;;;4991053;28;20419;-73
2023/10/16 00:21:07;;;;;;;4.60;4.20;;;7.00;99.90;;;;;;4992275;28;20508;-72
2023/10/16 00:23:40;;;;;;;4.27;3.40;;;6.90;99.90;;;;;;4990958;28;20483;-71
2023/10/16 00:26:06;;;;;;;3.93;3.57;;;6.80;99.90;;;;;;4990811;28;20232;-71
2023/10/16 00:28:35;;;;;;;9.80;3.40;;;6.80;99.90;;;;;;4990906;28;20954;-71
2023/10/16 00:31:02;;;;;;;3.50;3.20;;;6.80;99.90;;;;;;4992190;28;20399;-70
2023/10/16 00:33:28;;;;;;;3.80;3.50;;;6.80;99.90;;;;;;4991461;28;20413;-71
2023/10/16 00:35:53;;;;;;;3.83;3.43;;;6.90;99.90;;;;;;4990903;28;20948;-72
2023/10/16 00:38:19;;;;;;;4.30;3.60;;;6.80;99.90;;;;;;4990902;28;20251;-71
2023/10/16 00:40:52;;;;;;;4.00;3.53;;;6.90;99.90;;;;;;4992357;28;20271;-72
2023/10/16 00:43:22;;;;;;;4.47;4.00;;;6.90;99.90;;;;;;4991382;28;20240;-72
2023/10/16 00:45:59;;;;;;;4.73;3.40;;;6.80;99.90;;;;;;4995626;28;20534;-71
2023/10/16 00:48:25;;;;;;;4.97;4.47;;;6.80;99.90;;;;;;4995438;28;20458;-71
2023/10/16 00:50:51;;;;;;;4.00;3.70;;;6.70;99.90;;;;;;4978358;28;20409;-73
2023/10/16 00:53:21;;;;;;;4.13;3.20;;;6.70;99.90;;;;;;4995544;28;20445;-72
2023/10/16 00:55:51;;;;;;;3.90;3.60;;;6.70;99.90;;;;;;5020918;23;20540;-68
2023/10/16 00:58:17;;;;;;;4.07;3.77;;;6.60;99.90;;;;;;5035373;28;20414;-70
2023/10/16 01:00:46;;;;;;;5.27;3.90;;;6.60;99.90;;;;;;5051268;28;20481;-71
2023/10/16 01:03:13;;;;;;;4.83;3.60;;;6.60;99.90;;;;;;5051220;28;20406;-69
2023/10/16 01:05:41;;;;;;;5.10;4.00;;;6.50;99.90;;;;;;5034156;28;20467;-70
2023/10/16 01:08:08;;;;;;;4.03;3.50;;;6.40;99.90;;;;;;5031117;28;20494;-71
2023/10/16 01:10:34;;;;;;;4.67;3.53;;;6.50;99.90;;;;;;5034385;28;20521;-70
2023/10/16 01:13:02;;;;;;;7.33;3.93;;;6.50;99.90;;;;;;5034088;28;20441;-70
2023/10/16 01:15:27;;;;;;;3.53;3.17;;;6.50;99.90;;;;;;5033696;28;20497;-70
2023/10/16 01:17:53;;;;;;;4.30;2.70;;;6.50;99.90;;;;;;5034128;28;20972;-70
2023/10/16 01:20:19;;;;;;;3.20;2.80;;;6.50;99.90;;;;;;5034066;28;20176;-69
2023/10/16 01:22:52;;;;;;;3.87;3.47;;;6.40;99.90;;;;;;5033902;28;20661;-70
2023/10/16 01:25:18;;;;;;;3.77;3.17;;;6.40;99.90;;;;;;5033937;28;20246;-70
2023/10/16 01:27:44;;;;;;;4.00;3.60;;;6.40;99.90;;;;;;5033978;28;20857;-70
2023/10/16 01:30:10;;;;;;;8.00;3.07;;;6.40;99.90;;;;;;5033937;28;20172;-70
2023/10/16 01:32:39;;;;;;;3.80;3.20;;;6.40;99.90;;;;;;5033914;28;20444;-70
2023/10/16 01:35:08;;;;;;;3.63;3.00;;;6.40;99.90;;;;;;5033879;28;20410;-70
2023/10/16 01:37:38;;;;;;;4.10;3.20;;;6.40;99.90;;;;;;5033712;28;20811;-70
2023/10/16 01:40:17;;;;;;;4.63;3.13;;;6.40;99.90;;;;;;5033669;28;20410;-69
2023/10/16 01:42:43;;;;;;;5.67;3.27;;;6.40;99.90;;;;;;5033638;28;20436;-69
2023/10/16 01:45:08;;;;;;;4.30;2.90;;;6.30;99.90;;;;;;5033486;28;20925;-71
2023/10/16 01:47:34;;;;;;;4.60;3.67;;;6.30;99.90;;;;;;5033521;28;20195;-71
2023/10/16 01:50:02;;;;;;;3.90;3.20;;;6.30;99.90;;;;;;5033464;28;20943;-69
2023/10/16 01:52:27;;;;;;;5.20;3.63;;;6.40;99.90;;;;;;5033663;28;20176;-70
2023/10/16 01:54:53;;;;;;;5.73;3.50;;;6.40;99.90;;;;;;5033127;28;20406;-70
2023/10/16 01:57:21;;;;;;;4.30;3.53;;;6.30;99.90;;;;;;5033095;28;20257;-71
2023/10/16 01:59:49;;;;;;;4.63;3.40;;;6.30;99.90;;;;;;5033417;28;20229;-71
2023/10/16 02:02:17;;;;;;;3.70;3.40;;;6.30;99.90;;;;;;5033115;28;20417;-71
2023/10/16 02:04:43;;;;;;;4.13;3.73;;;6.20;99.90;;;;;;5033564;28;20410;-70
2023/10/16 02:07:09;;;;;;;4.53;3.30;;;6.30;99.90;;;;;;5033152;28;20429;-71
2023/10/16 02:09:39;;;;;;;4.37;2.97;;;6.30;99.90;;;;;;5033222;28;20545;-71
2023/10/16 02:12:14;;;;;;;4.10;3.13;;;6.20;99.90;;;;;;5033160;28;20410;-71
2023/10/16 02:14:40;;;;;;;4.57;3.43;;;6.20;99.90;;;;;;5013149;28;20405;-70
2023/10/16 02:17:14;;;;;;;3.87;3.53;;;6.20;99.90;;;;;;5013157;28;20423;-70
2023/10/16 02:19:43;;;;;;;7.97;3.77;;;6.20;99.90;;;;;;5013216;28;20753;-70
2023/10/16 02:22:11;;;;;;;4.10;3.67;;;6.10;99.90;;;;;;5013087;28;20450;-70
2023/10/16 02:24:37;;;;;;;4.13;3.50;;;6.10;99.90;;;;;;5014598;28;20411;-70
2023/10/16 02:27:03;;;;;;;5.90;3.30;;;6.10;99.90;;;;;;5012980;28;20426;-70
2023/10/16 02:29:31;;;;;;;3.80;3.10;;;6.00;99.90;;;;;;5012977;28;20454;-70
2023/10/16 02:31:58;;;;;;;4.13;3.73;;;6.00;99.90;;;;;;5013024;28;20423;-70
2023/10/16 02:34:23;;;;;;;5.27;3.27;;;6.00;99.90;;;;;;5031713;28;20406;-71
2023/10/16 02:36:54;;;;;;;5.10;3.90;;;6.00;99.90;;;;;;5033029;28;20793;-70
2023/10/16 02:39:35;;;;;;;3.97;3.50;;;6.00;99.90;;;;;;5032651;28;20160;-70
2023/10/16 02:42:14;;;;;;;4.97;3.73;;;5.90;99.90;;;;;;5032440;28;20402;-70
2023/10/16 02:44:42;;;;;;;5.97;3.27;;;5.90;99.90;;;;;;5029246;28;20418;-70
2023/10/16 02:47:13;;;;;;;5.30;3.87;;;5.90;99.90;;;;;;5012820;28;20861;-70
2023/10/16 02:49:47;;;;;;;6.63;3.77;;;5.90;99.90;;;;;;5016080;28;20441;-68
2023/10/16 02:52:14;;;;;;;4.90;3.00;;;5.90;99.90;;;;;;5032440;28;20489;-71
2023/10/16 02:54:40;;;;;;;4.23;3.60;;;5.90;99.90;;;;;;5032431;28;20916;-70
2023/10/16 02:57:06;;;;;;;6.03;3.13;;;5.80;99.90;;;;;;5032325;28;20445;-70
2023/10/16 02:59:33;;;;;;;3.80;3.50;;;5.90;99.90;;;;;;5032256;28;20172;-70
2023/10/16 03:02:00;;;;;;;4.97;3.40;;;5.90;99.90;;;;;;5032415;28;20929;-70
2023/10/16 03:04:27;;;;;;;3.93;3.20;;;5.80;99.90;;;;;;5031696;28;20418;-70
2023/10/16 03:06:54;;;;;;;4.67;3.97;;;5.90;99.90;;;;;;5031434;28;20467;-70
2023/10/16 03:09:25;;;;;;;5.67;3.77;;;5.90;99.90;;;;;;5031926;28;20449;-70
2023/10/16 03:12:04;;;;;;;4.33;3.20;;;5.90;99.90;;;;;;5032000;28;20435;-70
2023/10/16 03:14:35;;;;;;;3.67;3.37;;;5.90;99.90;;;;;;5031600;28;20395;-70
2023/10/16 03:17:08;;;;;;;4.97;3.40;;;5.80;99.90;;;;;;5032021;28;20433;-70
2023/10/16 03:19:35;;;;;;;3.50;3.20;;;5.80;99.90;;;;;;5032321;28;20501;-70
2023/10/16 03:22:04;;;;;;;5.93;3.17;;;5.80;99.90;;;;;;5032079;28;20406;-70
2023/10/16 03:24:30;;;;;;;3.37;3.07;;;5.80;99.90;;;;;;5031858;28;20465;-70
2023/10/16 03:26:57;;;;;;;4.37;3.50;;;5.80;99.90;;;;;;5031915;28;20478;-70
2023/10/16 03:29:23;;;;;;;4.00;3.40;;;5.60;99.90;;;;;;5031744;28;20685;-70
2023/10/16 03:31:49;;;;;;;5.30;4.20;;;5.60;99.90;;;;;;5031701;28;20441;-70
2023/10/16 03:34:14;;;;;;;5.57;4.30;;;5.60;99.90;;;;;;5031743;28;20418;-70
2023/10/16 03:36:41;;;;;;;4.50;4.10;;;5.60;99.90;;;;;;5031725;28;20194;-70
2023/10/16 03:39:10;;;;;;;4.50;3.77;;;5.60;99.90;;;;;;5031533;28;20642;-70
2023/10/16 03:41:39;;;;;;;4.10;3.47;;;5.60;99.90;;;;;;5031733;28;20464;-70
2023/10/16 03:44:14;;;;;;;3.87;3.57;;;5.60;99.90;;;;;;5031710;28;20449;-71
2023/10/16 03:46:40;;;;;;;5.10;4.30;;;5.60;99.90;;;;;;5031672;28;20944;-69
2023/10/16 03:49:07;;;;;;;3.70;3.40;;;5.60;99.90;;;;;;5031621;28;21006;-70
2023/10/16 03:51:33;;;;;;;5.40;4.20;;;5.70;99.90;;;;;;5031752;28;20792;-71
2023/10/16 03:53:58;;;;;;;4.10;3.70;;;5.60;99.90;;;;;;5031491;28;20486;-70
2023/10/16 03:56:24;;;;;;;3.73;3.43;;;5.50;99.90;;;;;;5031487;28;20310;-70
2023/10/16 03:58:53;;;;;;;4.50;4.13;;;5.50;99.90;;;;;;5031622;28;20171;-70
2023/10/16 04:01:24;;;;;;;4.77;4.37;;;5.40;99.90;;;;;;5031614;28;20966;-69
2023/10/16 04:03:56;;;;;;;7.37;4.63;;;5.50;99.90;;;;;;5031512;28;20410;-69
2023/10/16 04:06:24;;;;;;;7.13;4.77;;;5.50;99.90;;;;;;5031587;28;20429;-69
2023/10/16 04:08:51;;;;;;;4.60;3.80;;;5.50;99.90;;;;;;5031566;28;20445;-71
2023/10/16 04:11:18;;;;;;;5.00;4.50;;;5.50;99.90;;;;;;5031466;28;20417;-70
2023/10/16 04:13:50;;;;;;;4.03;3.70;;;5.50;99.90;;;;;;5031442;28;20827;-70
2023/10/16 04:19:35;;;;;;;6.63;4.90;;;5.50;99.90;;;;;;5036146;28;20433;-69
2023/10/16 04:22:08;;;;;;;4.33;3.93;;;5.50;99.90;;;;;;5036157;28;20401;-70
2023/10/16 04:24:44;;;;;;;4.73;4.30;;;5.50;99.90;;;;;;5035289;28;20425;-71
2023/10/16 04:29:46;;;;;;;4.70;4.30;;;5.50;99.90;;;;;;5036708;28;20806;-71
2023/10/16 04:35:03;;;;;;;6.13;5.43;;;5.40;99.90;;;;;;5017087;28;20453;-70
2023/10/16 04:37:36;;;;;;;5.67;4.80;;;5.40;99.90;;;;;;5031574;28;20423;-70
2023/10/16 04:45:25;;;;;;;6.30;5.33;;;5.30;99.90;;;;;;5027368;28;20441;-72
2023/10/16 04:50:30;;;;;;;6.77;4.80;;;5.30;99.90;;;;;;5036553;28;20409;-71
2023/10/16 05:01:22;;;;;;;6.53;5.93;;;5.20;99.90;;;;;;5035614;28;20398;-70
2023/10/16 05:06:15;;;;;;;6.90;6.30;;;5.10;99.90;;;;;;5035910;28;20917;-70
2023/10/16 05:11:36;;;;;;;6.60;6.00;;;5.20;99.90;;;;;;5036217;28;20387;-69
2023/10/16 06:14:13;;;;;;;6.40;5.80;;;5.10;99.90;;;;;;5034791;28;20401;-70
2023/10/16 06:16:40;;;;;;;6.50;5.90;;;5.20;99.90;;;;;;5034195;28;20437;-69
2023/10/16 06:19:10;;;;;;;8.73;6.40;;;5.30;99.90;;;;;;5033113;28;20563;-71
2023/10/16 06:21:37;;;;;;;9.87;7.40;;;5.30;99.90;;;;;;5033128;28;20478;-70
2023/10/16 06:24:17;;;;;;;6.40;5.80;;;5.30;99.90;;;;;;5032676;28;20770;-71
2023/10/16 06:26:46;;;;;;;6.77;5.30;;;5.40;99.90;;;;;;5033103;28;20920;-71
2023/10/16 06:29:12;;;;;;;6.30;5.70;;;5.40;99.90;;;;;;5032638;28;20457;-71
2023/10/16 06:31:49;;;;;;;5.80;5.30;;;5.50;99.90;;;;;;5032850;28;20418;-70
2023/10/16 06:34:15;;;;;;;6.80;5.43;;;5.50;99.90;;;;;;5032907;28;20175;-71
2023/10/16 06:36:44;;;;;;;6.27;5.67;;;5.50;99.90;;;;;;5032638;28;20861;-71
2023/10/16 06:39:22;;;;;;;8.70;6.63;;;5.50;99.90;;;;;;5032909;28;20425;-71
2023/10/16 06:41:53;;;;;;;6.70;6.10;;;5.50;99.90;;;;;;5032094;28;20501;-70
2023/10/16 06:44:21;;;;;;;10.53;5.33;;;5.60;99.90;;;;;;5032533;28;20414;-69
2023/10/16 06:46:50;;;;;;;6.83;6.17;;;5.70;99.90;;;;;;5032296;28;20499;-71
2023/10/16 06:49:16;;;;;;;6.70;6.10;;;5.70;99.90;;;;;;5032246;28;20471;-69
2023/10/16 06:51:44;;;;;;;5.90;5.23;;;5.70;99.90;;;;;;5032460;28;20433;-69
2023/10/16 06:54:10;;;;;;;5.97;5.33;;;5.70;99.90;;;;;;5032120;28;20648;-71
2023/10/16 06:56:38;;;;;;;5.30;4.77;;;5.80;99.90;;;;;;5050324;22;20491;-72
2023/10/16 06:59:04;;;;;;;6.40;5.80;;;5.90;99.90;;;;;;4986045;28;20408;-71
2023/10/16 07:01:30;;;;;;;5.27;4.87;;;5.90;99.90;;;;;;4985871;28;20937;-72
2023/10/16 07:03:55;;;;;;;5.50;5.00;;;6.00;99.90;;;;;;4985323;28;20169;-72
2023/10/16 07:06:32;;;;;;;6.10;5.57;;;6.00;99.90;;;;;;5005553;28;20665;-72
2023/10/16 07:08:59;;;;;;;5.27;4.87;;;6.10;99.90;;;;;;5011149;28;20210;-71
2023/10/16 07:11:26;;;;;;;7.00;6.27;;;6.10;99.90;;;;;;4994862;28;20787;-71
2023/10/16 07:13:52;;;;;;;6.50;5.90;;;6.30;99.90;;;;;;4985024;28;20412;-72
2023/10/16 07:16:19;;;;;;;9.40;8.53;;;6.30;99.90;;;;;;4991273;28;20523;-72
2023/10/16 07:18:45;;;;;;;7.40;6.63;;;6.40;99.90;;;;;;4991658;28;20193;-71
2023/10/16 07:21:17;;;;;;;7.30;6.60;;;6.50;99.90;;;;;;4991262;28;20465;-70
2023/10/16 07:23:43;;;;;;;7.57;6.87;;;6.50;99.90;;;;;;4992734;28;20303;-71
2023/10/16 07:26:10;;;;;;;7.77;6.13;;;6.70;99.90;;;;;;4991237;28;20823;-72
2023/10/16 07:28:37;;;;;;;6.53;5.93;;;6.80;99.90;;;;;;4992384;28;20977;-71
2023/10/16 07:31:05;;;;;;;7.03;6.33;;;6.90;99.90;;;;;;4991527;28;20412;-70
2023/10/16 07:33:32;;;;;;;7.07;6.10;;;7.00;99.90;;;;;;4992808;28;20412;-69
2023/10/16 07:36:01;;;;;;;8.73;6.37;;;7.00;99.90;;;;;;4975210;28;20413;-69
2023/10/16 07:38:28;;;;;;;7.93;7.23;;;7.00;99.90;;;;;;4991240;28;20439;-69
2023/10/16 07:40:56;;;;;;;8.27;6.93;;;7.10;99.90;;;;;;4991452;28;20495;-69
2023/10/16 07:43:28;;;;;;;8.73;6.63;;;7.10;99.90;;;;;;4991554;28;20405;-70
2023/10/16 07:45:56;;;;;;;12.47;10.50;;;7.20;99.90;;;;;;4976030;28;20834;-69
2023/10/16 07:48:21;;;;;;;11.60;8.93;;;7.30;99.90;;;;;;4992246;28;20961;-69
2023/10/16 07:50:50;;;;;;;17.37;13.33;;;7.30;99.90;;;;;;4958869;28;20416;-69
2023/10/16 07:53:19;;;;;;;10.17;7.67;;;7.40;99.90;;;;;;4994191;28;20628;-69
2023/10/16 07:55:51;;;;;;;14.33;12.43;;;7.40;99.90;;;;;;4979401;28;20926;-69
2023/10/16 07:58:24;;;;;;;16.33;12.17;;;7.50;99.90;;;;;;4979439;28;20555;-70
2023/10/16 08:00:59;;;;;;;10.50;9.33;;;7.50;99.90;;;;;;4979157;28;20768;-69
2023/10/16 08:03:26;;;;;;;14.83;11.90;;;7.60;99.90;;;;;;4979899;28;20409;-69
2023/10/16 08:05:52;;;;;;;8.63;7.50;;;7.70;99.90;;;;;;4979182;28;20452;-69
2023/10/16 08:08:25;;;;;;;9.10;8.30;;;7.70;99.90;;;;;;4994805;28;20459;-70
2023/10/16 08:10:52;;;;;;;8.53;7.67;;;7.80;99.90;;;;;;4996452;28;20818;-69
2023/10/16 08:13:18;;;;;;;8.80;6.57;;;7.50;99.90;;;;;;4994659;28;20418;-70
2023/10/16 08:15:44;;;;;;;9.57;6.97;;;7.30;99.90;;;;;;4995874;28;20474;-69
2023/10/16 08:18:12;;;;;;;8.17;7.37;;;7.30;99.90;;;;;;4996112;28;20446;-69
2023/10/16 08:20:49;;;;;;;9.47;7.80;;;7.60;99.90;;;;;;4994892;28;20412;-70
2023/10/16 08:23:16;;;;;;;11.43;6.63;;;7.80;99.90;;;;;;4996094;28;20518;-69
2023/10/16 08:25:42;;;;;;;7.50;6.80;;;8.00;99.90;;;;;;4994661;28;20892;-69
2023/10/16 08:28:20;;;;;;;9.50;7.60;;;7.90;99.90;;;;;;4994703;28;20434;-70
2023/10/16 08:33:16;;;;;;;13.57;7.50;;;7.80;99.90;;;;;;5003869;28;20438;-70
2023/10/16 08:35:42;;;;;;;7.33;6.63;;;7.70;99.90;;;;;;5002922;28;20499;-69
2023/10/16 08:38:15;;;;;;;10.33;7.20;;;7.90;99.90;;;;;;4996531;28;20427;-70
2023/10/16 08:40:44;;;;;;;10.53;7.60;;;8.10;99.90;;;;;;5011938;28;20402;-68
2023/10/16 08:43:10;;;;;;;7.83;6.83;;;8.00;99.90;;;;;;5000881;28;20434;-69
2023/10/16 08:45:48;;;;;;;27.57;8.73;;;8.10;99.90;;;;;;4994030;28;20413;-69
2023/10/16 08:48:17;;;;;;;8.17;7.47;;;8.40;99.90;;;;;;4995415;28;20429;-69
2023/10/16 08:50:52;;;;;;;6.80;5.93;;;8.60;99.90;;;;;;4993951;28;20410;-69
2023/10/16 08:53:30;;;;;;;10.77;7.57;;;8.70;99.90;;;;;;4995605;28;20391;-69
2023/10/16 08:56:09;;;;;;;7.87;6.93;;;8.70;99.90;;;;;;4993617;28;20493;-70
2023/10/16 08:58:40;;;;;;;8.10;7.10;;;8.70;99.90;;;;;;4994141;28;20935;-69
2023/10/16 09:01:07;;;;;;;9.57;7.83;;;8.60;99.90;;;;;;4994171;28;20430;-69
2023/10/16 09:03:42;;;;;;;7.93;6.90;;;8.80;99.90;;;;;;4995455;28;20427;-69
2023/10/16 09:06:08;;;;;;;9.50;7.53;;;9.10;99.90;;;;;;4993990;28;20835;-71
2023/10/16 09:08:35;;;;;;;11.80;8.20;;;9.50;99.90;;;;;;4995342;28;20451;-70
2023/10/16 09:11:07;;;;;;;8.47;7.30;;;9.60;99.90;;;;;;4995601;28;20266;-70
2023/10/16 09:13:36;;;;;;;7.70;6.87;;;9.80;99.90;;;;;;4993254;28;20452;-70
2023/10/16 09:16:03;;;;;;;8.30;6.47;;;9.60;99.90;;;;;;4980283;28;20419;-72
2023/10/16 09:18:31;;;;;;;7.10;6.40;;;9.60;99.90;;;;;;4994377;28;20442;-68
2023/10/16 09:21:00;;;;;;;8.33;6.80;;;9.40;99.90;;;;;;4995717;28;20415;-70
2023/10/16 09:23:36;;;;;;;7.40;6.70;;;9.40;99.90;;;;;;4994328;28;20981;-70
2023/10/16 09:26:02;;;;;;;10.57;7.30;;;9.70;99.90;;;;;;4969649;28;20478;-69
2023/10/16 09:28:32;;;;;;;8.30;5.73;;;9.70;99.90;;;;;;4999515;28;20481;-69
2023/10/16 09:31:01;;;;;;;7.70;5.40;;;9.50;99.90;;;;;;4995686;28;20481;-70
2023/10/16 09:33:27;;;;;;;8.73;5.57;;;9.70;99.90;;;;;;4993660;28;20437;-71
2023/10/16 09:36:00;;;;;;;6.20;4.70;;;9.80;99.90;;;;;;4993645;28;20693;-71
2023/10/16 09:38:32;;;;;;;7.30;4.93;;;9.80;99.90;;;;;;4994654;28;20471;-70
2023/10/16 09:43:56;;;;;;;6.37;5.77;;;10.20;99.90;;;;;;4995075;28;20438;-69
2023/10/16 09:46:48;;;;;;;10.67;6.17;;;10.20;99.90;;;;;;4993028;28;20431;-70
2023/10/16 09:49:21;;;;;;;8.50;6.50;;;10.30;99.90;;;;;;4993310;28;20442;-69
2023/10/16 09:52:00;;;;;;;7.37;6.47;;;10.30;99.90;;;;;;4993302;28;20471;-68
2023/10/16 09:54:27;;;;;;;9.27;6.20;;;10.20;99.90;;;;;;4993449;28;20408;-69
2023/10/16 09:57:00;;;;;;;7.30;5.90;;;10.10;99.90;;;;;;4993134;28;20513;-70
2023/10/16 09:59:33;;;;;;;8.10;6.90;;;10.20;99.90;;;;;;4993484;28;20469;-70
2023/10/16 10:02:08;;;;;;;9.70;6.63;;;10.20;99.90;;;;;;4976855;28;20891;-70
2023/10/16 10:04:43;;;;;;;8.40;6.70;;;10.10;99.90;;;;;;4983438;28;20534;-70
2023/10/16 10:07:19;;;;;;;13.00;7.43;;;10.10;99.90;;;;;;5006589;28;20497;-71
2023/10/16 10:09:48;;;;;;;7.20;6.50;;;10.30;99.90;;;;;;5001547;28;20919;-70
2023/10/16 10:12:23;;;;;;;6.27;5.67;;;10.10;99.90;;;;;;5001058;28;21579;-70
2023/10/16 10:15:15;;;;;;;8.30;5.63;;;10.40;99.90;;;;;;5002695;28;20420;-70
2023/10/16 10:17:43;;;;;;;7.90;5.30;;;10.60;99.90;;;;;;4985359;28;20566;-70
2023/10/16 10:20:17;;;;;;;5.87;5.30;;;10.60;99.90;;;;;;4985211;28;20424;-70
2023/10/16 10:22:45;;;;;;;6.17;4.83;;;10.50;99.90;;;;;;4993893;28;20883;-70
2023/10/16 10:25:17;;;;;;;5.30;4.80;;;10.70;99.90;;;;;;4994363;28;20479;-69
2023/10/16 10:27:43;;;;;;;8.63;4.90;;;10.90;99.90;;;;;;4992041;28;20498;-70
2023/10/16 10:30:19;;;;;;;5.70;5.10;;;10.90;99.90;;;;;;4992313;28;20484;-70
2023/10/16 10:32:58;;;;;;;9.10;4.87;;;10.90;99.90;;;;;;4992442;28;20452;-70
2023/10/16 10:35:38;;;;;;;4.77;4.33;;;11.30;99.90;;;;;;4991966;28;20418;-71
2023/10/16 10:38:20;;;;;;;5.73;4.90;;;11.30;99.90;;;;;;4992422;28;20464;-71
2023/10/16 10:41:04;;;;;;;8.97;4.33;;;10.90;99.90;;;;;;4992044;28;20410;-71
2023/10/16 10:43:48;;;;;;;5.23;4.73;;;11.20;99.90;;;;;;4993410;28;20477;-70
2023/10/16 10:46:20;;;;;;;5.30;3.90;;;11.50;99.90;;;;;;4977304;28;20403;-70
2023/10/16 10:48:46;;;;;;;4.33;3.67;;;11.80;99.90;;;;;;4991415;28;20633;-70
2023/10/16 10:51:14;;;;;;;6.93;4.00;;;12.10;99.90;;;;;;4992138;28;20421;-70
2023/10/16 10:53:56;;;;;;;3.67;3.30;;;12.40;99.90;;;;;;4989813;28;20219;-71
2023/10/16 10:56:22;;;;;;;3.90;3.50;;;14.10;99.90;;;;;;4992080;28;20416;-70
2023/10/16 10:58:49;;;;;;;4.53;2.60;;;15.80;98.80;;;;;;4973813;28;20789;-72
2023/10/16 11:03:48;;;;;;;4.03;2.40;;;15.10;96.70;;;;;;4991584;28;20900;-72
2023/10/16 11:06:18;;;;;;;3.60;2.07;;;16.80;95.60;;;;;;4991606;28;20422;-71
2023/10/16 11:08:47;;;;;;;3.27;1.70;;;17.00;91.30;;;;;;4991665;28;20451;-71
2023/10/16 11:11:14;;;;;;;1.80;1.47;;;17.70;88.70;;;;;;4974904;28;20431;-70
2023/10/16 11:13:47;;;;;;;2.23;1.30;;;17.00;87.30;;;;;;4990795;28;20416;-69
2023/10/16 11:16:14;;;;;;;2.73;1.83;;;17.30;86.30;;;;;;4992131;28;20415;-70
2023/10/16 11:18:43;;;;;;;2.50;1.90;;;17.40;83.90;;;;;;4991490;28;20427;-68
2023/10/16 11:21:09;;;;;;;3.00;1.90;;;17.30;84.10;;;;;;4991353;28;20424;-69
2023/10/16 11:23:39;;;;;;;3.33;1.90;;;17.00;85.40;;;;;;4992059;28;20439;-69
2023/10/16 11:26:06;;;;;;;4.13;1.93;;;17.10;83.90;;;;;;4992996;28;20761;-69
2023/10/16 11:28:32;;;;;;;3.40;2.37;;;17.10;84.00;;;;;;4975123;28;20529;-69
2023/10/16 11:31:00;;;;;;;3.07;1.60;;;17.70;82.60;;;;;;4991555;28;20474;-69
2023/10/16 11:33:26;;;;;;;3.30;1.80;;;17.40;81.30;;;;;;4993849;28;20890;-69
2023/10/16 11:35:54;;;;;;;3.00;2.13;;;18.20;81.10;;;;;;4997898;28;20449;-69
2023/10/16 11:38:28;;;;;;;2.97;1.90;;;18.70;80.60;;;;;;4998618;28;20428;-69
2023/10/16 11:41:04;;;;;;;2.00;1.60;;;18.10;80.20;;;;;;4984517;28;20416;-72
2023/10/16 11:43:46;;;;;;;2.20;1.80;;;17.80;80.20;;;;;;5000675;28;20486;-69
2023/10/16 11:46:29;;;;;;;2.80;2.03;;;18.40;82.20;;;;;;4989301;28;20404;-70
2023/10/16 11:52:19;;;;;;;2.03;1.47;;;20.60;73.50;;;;;;4996384;28;20447;-71
2023/10/16 11:54:56;;;;;;;2.97;1.70;;;20.70;68.20;;;;;;4983796;28;20430;-70
2023/10/16 11:57:23;;;;;;;4.07;2.30;;;20.60;68.90;;;;;;5000644;28;20842;-71
2023/10/16 11:59:51;;;;;;;1.80;1.60;;;19.60;71.30;;;;;;5001185;28;20422;-70
2023/10/16 12:02:23;;;;;;;2.20;2.00;;;18.90;73.50;;;;;;5001807;28;20415;-70
2023/10/16 12:04:49;;;;;;;2.97;1.70;;;18.30;75.80;;;;;;5003976;28;20478;-70
2023/10/16 12:07:15;;;;;;;3.80;2.10;;;19.50;72.80;;;;;;4981517;28;20538;-70
2023/10/16 12:09:53;;;;;;;2.77;1.93;;;20.30;71.50;;;;;;4991006;28;20461;-70
2023/10/16 12:12:24;;;;;;;1.70;1.50;;;20.80;68.90;;;;;;4992205;28;20415;-70
2023/10/16 12:14:50;;;;;;;2.00;1.53;;;20.10;70.60;;;;;;4990970;28;20407;-71
2023/10/16 12:17:21;;;;;;;2.27;2.00;;;21.40;68.80;;;;;;4990797;28;20450;-70
2023/10/16 12:19:48;;;;;;;2.57;2.10;;;19.70;70.50;;;;;;4966373;28;20801;-70
2023/10/16 12:22:20;;;;;;;2.87;2.30;;;19.70;71.60;;;;;;4999464;28;20801;-70
2023/10/16 12:24:46;;;;;;;3.87;1.83;;;20.60;68.30;;;;;;4992248;28;20515;-72
2023/10/16 12:27:15;;;;;;;2.80;1.80;;;21.90;66.60;;;;;;5002326;28;20426;-72
2023/10/16 12:29:41;;;;;;;2.60;1.90;;;20.90;65.40;;;;;;5001987;28;20451;-71
2023/10/16 12:32:07;;;;;;;2.27;1.50;;;22.10;67.30;;;;;;4999877;28;20480;-69
2023/10/16 12:34:33;;;;;;;1.70;1.60;;;22.30;63.60;;;;;;5007371;28;20886;-71
2023/10/16 12:37:00;;;;;;;2.93;1.70;;;21.80;64.00;;;;;;5009174;28;20273;-71
2023/10/16 12:39:28;;;;;;;2.10;1.70;;;20.70;66.50;;;;;;5000419;28;20252;-71
2023/10/16 12:42:01;;;;;;;3.17;2.20;;;20.50;65.40;;;;;;5004637;28;20451;-71
2023/10/16 12:44:28;;;;;;;3.03;1.80;;;20.10;67.50;;;;;;5001341;28;20470;-70
2023/10/16 12:46:55;;;;;;;2.80;2.20;;;20.20;65.90;;;;;;4995926;28;20443;-72
2023/10/16 12:49:21;;;;;;;1.50;1.40;;;20.60;65.40;;;;;;4995710;28;20490;-71
2023/10/16 12:51:49;;;;;;;2.40;1.80;;;20.70;65.60;;;;;;4963066;28;20494;-71
2023/10/16 12:54:15;;;;;;;1.90;1.50;;;21.60;64.40;;;;;;4978459;28;20655;-71
2023/10/16 12:56:43;;;;;;;2.97;1.70;;;21.30;64.10;;;;;;5020872;23;20982;-73
2023/10/16 12:59:10;;;;;;;2.60;1.80;;;22.30;62.00;;;;;;5018027;28;20419;-71
2023/10/16 13:01:36;;;;;;;2.60;1.50;;;22.60;60.20;;;;;;5014939;28;20505;-73
2023/10/16 13:04:06;;;;;;;1.67;1.30;;;21.50;62.50;;;;;;5033905;28;20762;-71
2023/10/16 13:06:32;;;;;;;2.13;1.70;;;22.00;61.60;;;;;;5027416;28;20429;-72
2023/10/16 13:09:00;;;;;;;2.60;2.07;;;21.80;61.60;;;;;;5018782;28;20450;-70
2023/10/16 13:11:27;;;;;;;1.90;1.50;;;20.50;63.00;;;;;;5024849;28;20410;-71
2023/10/16 13:13:55;;;;;;;2.33;1.63;;;21.20;62.50;;;;;;5024500;28;20435;-71
2023/10/16 13:16:24;;;;;;;3.50;1.80;;;20.70;62.30;;;;;;5022777;28;20431;-72
2023/10/16 13:18:58;;;;;;;5.40;2.07;;;20.70;63.70;;;;;;5023987;28;20517;-71
2023/10/16 13:21:34;;;;;;;4.30;1.77;;;22.50;60.20;;;;;;5014340;28;20921;-71
2023/10/16 13:24:10;;;;;;;3.70;1.70;;;21.80;59.80;;;;;;5033687;28;20852;-71
2023/10/16 13:26:36;;;;;;;4.17;1.60;;;20.00;60.50;;;;;;5034147;28;20912;-71
2023/10/16 13:29:07;;;;;;;4.73;1.97;;;19.50;62.20;;;;;;5033457;28;20450;-72
2023/10/16 13:31:35;;;;;;;4.00;1.83;;;20.00;61.30;;;;;;5034086;28;20406;-72
2023/10/16 13:34:02;;;;;;;3.63;1.87;;;19.80;61.50;;;;;;5033813;28;20472;-72
2023/10/16 13:36:29;;;;;;;5.27;1.83;;;19.90;62.80;;;;;;5033907;28;20414;-71
2023/10/16 13:38:55;;;;;;;2.40;1.77;;;20.70;61.60;;;;;;5033689;28;20497;-70
2023/10/16 13:41:21;;;;;;;4.23;1.70;;;21.30;60.50;;;;;;5033862;28;20525;-71
2023/10/16 13:43:47;;;;;;;3.73;1.63;;;23.10;57.80;;;;;;5033844;28;20182;-71
2023/10/16 13:46:14;;;;;;;3.03;2.00;;;22.60;57.50;;;;;;5033851;28;20943;-71
2023/10/16 13:48:45;;;;;;;1.70;1.60;;;21.20;59.10;;;;;;5033352;28;20453;-70
2023/10/16 13:51:13;;;;;;;2.00;1.80;;;20.90;59.60;;;;;;5033239;28;20434;-71
2023/10/16 13:53:42;;;;;;;2.53;2.03;;;20.50;59.30;;;;;;5033423;28;20398;-71
2023/10/16 13:56:08;;;;;;;4.50;2.53;;;19.40;60.50;;;;;;5033821;28;20418;-71
2023/10/16 13:58:35;;;;;;;1.87;1.50;;;17.60;64.40;;;;;;5033637;28;20495;-71
2023/10/16 14:01:01;;;;;;;2.20;1.97;;;16.40;67.20;;;;;;5033393;28;20421;-71
2023/10/16 14:03:27;;;;;;;2.13;1.87;;;15.20;69.70;;;;;;5033213;28;20406;-71
2023/10/16 14:05:54;;;;;;;3.10;1.83;;;15.20;70.90;;;;;;5033353;28;20406;-71
2023/10/16 14:08:30;;;;;;;1.93;1.60;;;15.10;71.20;;;;;;5033105;28;20199;-72
2023/10/16 14:11:00;;;;;;;2.20;1.60;;;15.20;71.30;;;;;;5033305;28;20409;-71
2023/10/16 14:13:32;;;;;;;1.90;1.70;;;14.70;71.80;;;;;;5034506;28;20408;-71
2023/10/16 14:16:11;;;;;;;4.50;1.77;;;14.20;72.70;;;;;;5033271;28;20465;-70
2023/10/16 14:18:42;;;;;;;2.80;1.50;;;13.90;74.10;;;;;;5033228;28;20959;-71
2023/10/16 14:21:08;;;;;;;1.97;1.47;;;14.20;74.70;;;;;;5033191;28;20411;-70
2023/10/16 14:23:34;;;;;;;3.10;1.80;;;14.40;74.00;;;;;;5032986;28;20436;-71
2023/10/16 14:26:00;;;;;;;2.40;1.40;;;14.60;74.10;;;;;;5033201;28;20416;-71
2023/10/16 14:28:40;;;;;;;6.13;1.50;;;14.80;74.30;;;;;;5033914;28;20436;-72
2023/10/16 14:31:09;;;;;;;2.63;1.70;;;14.60;72.90;;;;;;5027799;28;20630;-69
2023/10/16 14:33:39;;;;;;;2.40;1.50;;;14.40;74.00;;;;;;5023139;28;20415;-70
2023/10/16 14:36:07;;;;;;;2.60;1.80;;;14.50;73.90;;;;;;5023284;28;20466;-71
2023/10/16 14:38:33;;;;;;;1.97;1.80;;;14.50;72.90;;;;;;5022267;28;20438;-71
2023/10/16 14:41:04;;;;;;;1.73;1.20;;;14.20;73.00;;;;;;5022673;28;20420;-70
2023/10/16 14:43:30;;;;;;;2.23;1.90;;;14.00;73.70;;;;;;5026781;28;20445;-71
2023/10/16 14:46:00;;;;;;;1.60;1.50;;;14.10;74.20;;;;;;5033267;28;20408;-72